createdAt,value
2023-01-19T00:02:04.620Z,9.57
2023-01-19T00:04:31.400Z,9.85
2023-01-19T00:06:58.224Z,9.13
2023-01-19T00:09:25.098Z,8.93
2023-01-19T00:11:51.840Z,9.70
2023-01-19T00:14:18.613Z,9.27
2023-01-19T00:16:45.358Z,8.95
2023-01-19T00:19:12.204Z,9.25
2023-01-19T00:21:38.919Z,8.45
2023-01-19T00:24:06.177Z,9.88
2023-01-19T00:26:32.985Z,9.55
2023-01-19T00:28:59.811Z,9.18
2023-01-19T00:31:26.550Z,8.43
2023-01-19T00:33:53.349Z,9.57
2023-01-19T00:36:20.520Z,9.77
2023-01-19T00:38:47.423Z,9.30
2023-01-19T00:41:14.255Z,9.15
2023-01-19T00:43:41.076Z,10.20
2023-01-19T00:46:07.916Z,10.50
2023-01-19T00:48:34.876Z,9.48
2023-01-19T00:51:01.687Z,9.23
2023-01-19T00:53:32.396Z,9.27
2023-01-19T00:55:59.244Z,8.60
2023-01-19T00:58:26.058Z,8.85
2023-01-19T01:00:54.011Z,9.68
2023-01-19T01:03:20.894Z,9.30
2023-01-19T01:05:48.935Z,9.70
2023-01-19T01:08:15.704Z,9.43
2023-01-19T01:10:42.447Z,9.63
2023-01-19T01:13:21.206Z,10.40
2023-01-19T01:15:55.723Z,9.85
2023-01-19T01:18:22.590Z,8.80
2023-01-19T01:20:49.731Z,11.07
2023-01-19T01:23:16.821Z,9.57
2023-01-19T01:25:43.577Z,9.52
2023-01-19T01:28:10.442Z,9.38
2023-01-19T01:30:40.902Z,8.85
2023-01-19T01:33:08.351Z,9.20
2023-01-19T01:35:35.168Z,9.52
2023-01-19T01:38:01.933Z,9.68
2023-01-19T01:40:28.742Z,9.13
2023-01-19T01:42:55.580Z,9.10
2023-01-19T01:45:28.814Z,8.75
2023-01-19T01:50:28.382Z,8.30
2023-01-19T01:53:08.632Z,9.48
2023-01-19T01:55:46.714Z,8.07
2023-01-19T01:58:15.045Z,9.13
2023-01-19T02:01:01.117Z,8.75
2023-01-19T02:03:28.668Z,8.32
2023-01-19T02:06:00.372Z,8.98
2023-01-19T02:08:52.417Z,9.10
2023-01-19T02:11:38.277Z,6.13
2023-01-19T02:14:05.767Z,8.15
2023-01-19T02:16:33.525Z,8.50
2023-01-19T02:19:01.149Z,8.90
2023-01-19T02:21:54.248Z,8.00
2023-01-19T02:26:48.930Z,7.60
2023-01-19T02:29:20.991Z,8.73
2023-01-19T02:31:48.027Z,6.15
2023-01-19T02:34:18.801Z,8.27
2023-01-19T02:36:57.397Z,9.05
2023-01-19T02:39:33.554Z,8.80
2023-01-19T02:42:04.425Z,9.02
2023-01-19T02:44:32.900Z,7.78
2023-01-19T02:46:59.839Z,8.60
2023-01-19T02:49:30.254Z,8.18
2023-01-19T02:51:58.286Z,8.57
2023-01-19T02:54:42.157Z,8.32
2023-01-19T02:57:08.936Z,7.20
2023-01-19T02:59:47.895Z,7.70
2023-01-19T03:02:29.004Z,7.75
2023-01-19T03:05:00.175Z,7.95
2023-01-19T03:07:47.710Z,8.25
2023-01-19T03:10:23.275Z,8.57
2023-01-19T03:12:57.649Z,7.25
2023-01-19T03:15:49.681Z,7.07
2023-01-19T03:18:20.989Z,8.38
2023-01-19T03:20:53.394Z,8.38
2023-01-19T03:23:23.759Z,7.95
2023-01-19T03:25:53.028Z,8.13
2023-01-19T03:28:22.756Z,8.07
2023-01-19T03:30:58.081Z,7.93
2023-01-19T03:33:30.456Z,7.97
2023-01-19T03:36:04.309Z,8.07
2023-01-19T03:38:36.160Z,7.72
2023-01-19T03:41:07.050Z,7.57
2023-01-19T03:43:35.639Z,7.40
2023-01-19T03:46:05.054Z,6.93
2023-01-19T03:48:33.044Z,6.60
2023-01-19T03:51:05.015Z,7.88
2023-01-19T03:53:31.831Z,7.45
2023-01-19T03:55:58.690Z,6.88
2023-01-19T03:58:25.411Z,7.03
2023-01-19T04:00:52.476Z,8.27
2023-01-19T04:03:19.752Z,7.60
2023-01-19T04:05:46.813Z,8.20
2023-01-19T04:08:13.638Z,8.13
2023-01-19T04:10:40.431Z,8.50
2023-01-19T04:13:07.239Z,8.80
2023-01-19T04:15:34.232Z,9.13
2023-01-19T04:18:01.376Z,8.77
2023-01-19T04:20:29.090Z,8.95
2023-01-19T04:23:00.705Z,9.25
2023-01-19T04:25:28.391Z,8.77
2023-01-19T04:27:55.300Z,9.63
2023-01-19T04:30:22.736Z,10.60
2023-01-19T04:32:49.768Z,10.25
2023-01-19T04:35:17.080Z,9.15
2023-01-19T04:37:45.029Z,10.48
2023-01-19T04:40:12.198Z,10.05
2023-01-19T04:42:39.173Z,10.25
2023-01-19T04:45:06.369Z,10.05
2023-01-19T04:47:33.188Z,10.35
2023-01-19T04:49:59.953Z,10.32
2023-01-19T04:52:35.067Z,10.93
2023-01-19T04:55:06.188Z,9.95
2023-01-19T04:57:33.035Z,10.60
2023-01-19T04:59:59.989Z,10.05
2023-01-19T05:02:26.841Z,10.23
2023-01-19T05:04:53.855Z,10.65
2023-01-19T05:07:20.677Z,9.70
2023-01-19T05:09:47.632Z,10.20
2023-01-19T05:12:14.472Z,9.65
2023-01-19T05:14:41.294Z,9.48
2023-01-19T05:17:08.028Z,9.50
2023-01-19T05:19:35.429Z,9.02
2023-01-19T05:22:03.785Z,9.35
2023-01-19T05:24:30.883Z,10.35
2023-01-19T05:26:57.884Z,9.23
2023-01-19T05:29:24.787Z,10.25
2023-01-19T05:31:51.734Z,8.73
2023-01-19T05:34:19.029Z,8.85
2023-01-19T05:36:45.964Z,9.48
2023-01-19T05:39:12.865Z,10.05
2023-01-19T05:41:39.824Z,10.05
2023-01-19T05:44:06.619Z,9.13
2023-01-19T05:46:34.647Z,9.25
2023-01-19T05:49:05.171Z,9.27
2023-01-19T05:51:35.240Z,9.15
2023-01-19T05:54:02.184Z,8.63
2023-01-19T05:56:29.385Z,8.63
2023-01-19T05:58:56.424Z,9.00
2023-01-19T06:01:23.371Z,8.95
2023-01-19T06:03:50.252Z,8.18
2023-01-19T06:06:17.726Z,10.73
2023-01-19T06:08:45.565Z,10.35
2023-01-19T06:11:12.614Z,9.65
2023-01-19T06:13:41.345Z,9.82
2023-01-19T06:16:10.560Z,10.00
2023-01-19T06:18:37.637Z,8.68
2023-01-19T06:21:06.068Z,8.80
2023-01-19T06:23:34.104Z,8.85
2023-01-19T06:26:01.075Z,9.27
2023-01-19T06:28:28.107Z,9.75
2023-01-19T06:30:56.198Z,9.90
2023-01-19T06:33:24.131Z,9.55
2023-01-19T06:35:51.857Z,10.57
2023-01-19T06:38:19.406Z,11.27
2023-01-19T06:40:53.715Z,9.82
2023-01-19T06:43:20.758Z,10.00
2023-01-19T06:45:49.576Z,8.05
2023-01-19T06:48:16.750Z,8.77
2023-01-19T06:50:46.063Z,8.73
2023-01-19T06:53:13.355Z,8.38
2023-01-19T06:55:40.278Z,8.20
2023-01-19T06:58:07.314Z,8.13
2023-01-19T07:00:34.302Z,9.00
2023-01-19T07:03:01.484Z,8.00
2023-01-19T07:05:28.724Z,7.97
2023-01-19T07:07:57.104Z,8.55
2023-01-19T07:10:25.178Z,8.07
2023-01-19T07:12:52.332Z,8.00
2023-01-19T07:15:21.840Z,9.13
2023-01-19T07:17:48.841Z,9.75
2023-01-19T07:20:16.355Z,8.52
2023-01-19T07:22:46.704Z,9.20
2023-01-19T07:25:14.356Z,7.80
2023-01-19T07:27:41.559Z,7.55
2023-01-19T07:30:09.134Z,7.70
2023-01-19T07:32:36.201Z,6.72
2023-01-19T07:35:03.651Z,6.65
2023-01-19T07:37:30.647Z,7.90
2023-01-19T07:39:57.485Z,7.53
2023-01-19T07:42:24.335Z,6.50
2023-01-19T07:44:51.296Z,6.85
2023-01-19T07:47:18.555Z,6.85
2023-01-19T07:49:45.515Z,6.57
2023-01-19T07:52:12.419Z,6.47
2023-01-19T07:54:39.235Z,6.00
2023-01-19T07:57:06.077Z,6.55
2023-01-19T07:59:33.101Z,5.82
2023-01-19T08:02:00.320Z,6.28
2023-01-19T08:04:28.500Z,6.68
2023-01-19T08:06:56.514Z,5.88
2023-01-19T08:09:24.463Z,6.70
2023-01-19T08:11:51.620Z,6.43
2023-01-19T08:14:18.616Z,7.13
2023-01-19T08:16:45.463Z,6.68
2023-01-19T08:19:12.550Z,7.22
2023-01-19T08:21:39.451Z,6.53
2023-01-19T08:24:06.584Z,6.47
2023-01-19T08:26:35.431Z,6.43
2023-01-19T08:29:04.837Z,5.60
2023-01-19T08:31:32.032Z,6.45
2023-01-19T08:33:59.280Z,5.95
2023-01-19T08:36:26.482Z,6.40
2023-01-19T08:38:53.492Z,6.32
2023-01-19T08:41:20.501Z,5.85
2023-01-19T08:43:47.687Z,5.80
2023-01-19T08:46:20.768Z,5.28
2023-01-19T08:48:51.121Z,5.47
2023-01-19T08:51:18.027Z,5.45
2023-01-19T08:53:44.914Z,5.75
2023-01-19T08:56:15.033Z,5.53
2023-01-19T08:58:43.134Z,5.57
2023-01-19T09:01:10.846Z,4.97
2023-01-19T09:03:37.714Z,5.80
2023-01-19T09:06:08.577Z,5.30
2023-01-19T09:08:35.866Z,5.30
2023-01-19T09:11:02.868Z,4.60
2023-01-19T09:13:29.710Z,4.93
2023-01-19T09:15:56.743Z,5.13
2023-01-19T09:18:23.615Z,5.57
2023-01-19T09:20:50.922Z,5.05
2023-01-19T09:23:20.303Z,5.32
2023-01-19T09:25:48.074Z,5.00
2023-01-19T09:28:17.598Z,5.50
2023-01-19T09:30:45.127Z,5.90
2023-01-19T09:33:15.209Z,5.78
2023-01-19T09:35:43.100Z,5.50
2023-01-19T09:38:10.676Z,4.95
2023-01-19T09:40:42.760Z,5.53
2023-01-19T09:43:14.174Z,5.03
2023-01-19T09:45:55.246Z,4.90
2023-01-19T09:48:28.075Z,5.40
2023-01-19T09:50:58.392Z,5.40
2023-01-19T09:53:45.487Z,5.55
2023-01-19T09:56:15.420Z,5.05
2023-01-19T09:58:42.576Z,5.25
2023-01-19T10:01:48.385Z,5.25
2023-01-19T10:04:39.610Z,4.65
2023-01-19T10:07:28.319Z,5.28
2023-01-19T10:10:07.295Z,4.80
2023-01-19T10:12:51.025Z,5.22
2023-01-19T10:15:27.104Z,4.90
2023-01-19T10:18:10.505Z,5.90
2023-01-19T10:20:43.180Z,4.80
2023-01-19T10:23:51.218Z,5.30
2023-01-19T10:26:40.913Z,5.00
2023-01-19T10:29:35.330Z,4.88
2023-01-19T10:32:10.064Z,5.20
2023-01-19T10:34:37.121Z,4.78
2023-01-19T10:37:31.207Z,5.05
2023-01-19T10:40:10.223Z,4.68
2023-01-19T10:42:39.688Z,5.07
2023-01-19T10:45:30.382Z,5.13
2023-01-19T10:48:07.276Z,4.53
2023-01-19T10:50:40.123Z,4.40
2023-01-19T10:55:44.850Z,4.30
2023-01-19T10:58:30.460Z,4.95
2023-01-19T11:01:26.242Z,4.35
2023-01-19T11:03:54.628Z,4.38
2023-01-19T11:06:26.072Z,4.70
2023-01-19T11:09:08.899Z,4.05
2023-01-19T11:11:46.269Z,4.72
2023-01-19T11:14:17.541Z,3.97
2023-01-19T11:16:56.404Z,4.13
2023-01-19T11:19:29.625Z,4.35
2023-01-19T11:22:22.756Z,4.57
2023-01-19T11:24:50.443Z,4.95
2023-01-19T11:27:19.788Z,4.70
2023-01-19T11:29:59.094Z,4.40
2023-01-19T11:32:28.012Z,4.65
2023-01-19T11:34:54.938Z,5.15
2023-01-19T11:37:34.449Z,4.28
2023-01-19T11:40:11.426Z,4.47
2023-01-19T11:42:39.543Z,4.82
2023-01-19T11:45:19.347Z,4.78
2023-01-19T11:47:52.648Z,4.72
2023-01-19T11:50:31.509Z,4.00
2023-01-19T11:53:07.476Z,4.45
2023-01-19T11:55:43.813Z,4.53
2023-01-19T11:58:18.441Z,4.40
2023-01-19T12:00:45.315Z,4.20
2023-01-19T12:03:30.595Z,3.97
2023-01-19T12:06:19.847Z,4.22
2023-01-19T12:09:05.499Z,4.28
2023-01-19T12:12:04.100Z,4.13
2023-01-19T12:14:36.750Z,4.10
2023-01-19T12:17:07.054Z,3.78
2023-01-19T12:19:55.157Z,3.80
2023-01-19T12:22:24.092Z,3.72
2023-01-19T12:25:00.526Z,3.85
2023-01-19T12:27:45.939Z,3.67
2023-01-19T12:30:28.104Z,3.47
2023-01-19T12:33:33.413Z,3.00
2023-01-19T12:36:02.328Z,3.13
2023-01-19T12:38:40.608Z,3.47
2023-01-19T12:41:37.056Z,3.63
2023-01-19T12:44:10.653Z,3.38
2023-01-19T12:47:08.096Z,3.30
2023-01-19T12:49:45.699Z,3.22
2023-01-19T12:52:24.404Z,3.58
2023-01-19T12:54:59.866Z,3.42
2023-01-19T12:57:51.775Z,3.83
2023-01-19T13:00:24.686Z,3.30
2023-01-19T13:05:22.512Z,3.63
2023-01-19T13:08:11.381Z,3.30
2023-01-19T13:10:59.780Z,3.55
2023-01-19T13:13:40.022Z,3.13
2023-01-19T13:16:19.347Z,3.42
2023-01-19T13:18:48.584Z,3.47
2023-01-19T13:21:39.828Z,3.25
2023-01-19T13:24:11.750Z,3.65
2023-01-19T13:27:03.487Z,3.05
2023-01-19T13:29:37.231Z,3.13
2023-01-19T13:32:15.954Z,3.45
2023-01-19T13:34:53.228Z,3.45
2023-01-19T13:37:44.164Z,3.08
2023-01-19T13:40:38.332Z,3.40
2023-01-19T13:43:15.997Z,3.65
2023-01-19T13:45:50.698Z,3.47
2023-01-19T13:48:22.256Z,3.47
2023-01-19T13:51:07.096Z,3.78
2023-01-19T13:53:35.502Z,3.08
2023-01-19T13:56:06.936Z,3.53
2023-01-19T13:58:34.181Z,3.70
2023-01-19T14:01:01.178Z,3.08
2023-01-19T14:03:28.123Z,3.42
2023-01-19T14:05:55.593Z,3.15
2023-01-19T14:08:25.332Z,2.85
2023-01-19T14:10:52.205Z,2.90
2023-01-19T14:13:26.882Z,3.22
2023-01-19T14:15:56.951Z,3.03
2023-01-19T14:18:30.167Z,3.25
2023-01-19T14:21:14.971Z,3.13
2023-01-19T14:24:08.534Z,3.08
2023-01-19T14:26:41.811Z,3.10
2023-01-19T14:29:22.343Z,3.22
2023-01-19T14:31:52.743Z,3.10
2023-01-19T14:37:00.173Z,3.38
2023-01-19T14:39:30.360Z,3.03
2023-01-19T14:42:00.744Z,3.58
2023-01-19T14:44:38.992Z,3.42
2023-01-19T14:47:07.439Z,3.22
2023-01-19T14:49:41.787Z,3.65
2023-01-19T14:52:34.518Z,3.50
2023-01-19T14:55:03.923Z,3.85
2023-01-19T14:57:30.791Z,3.30
2023-01-19T14:59:57.715Z,3.22
2023-01-19T15:02:24.736Z,2.92
2023-01-19T15:05:08.912Z,3.10
2023-01-19T15:07:38.387Z,3.33
2023-01-19T15:10:11.400Z,3.22
2023-01-19T15:12:38.819Z,3.10
2023-01-19T15:15:06.568Z,3.35
2023-01-19T15:17:34.065Z,3.10
2023-01-19T15:20:00.932Z,2.83
2023-01-19T15:22:29.331Z,2.97
2023-01-19T15:24:59.982Z,3.00
2023-01-19T15:27:27.922Z,3.17
2023-01-19T15:29:54.841Z,3.53
2023-01-19T15:32:21.737Z,3.17
2023-01-19T15:34:48.992Z,3.40
2023-01-19T15:37:15.864Z,3.15
2023-01-19T15:39:42.784Z,4.00
2023-01-19T15:42:13.807Z,3.30
2023-01-19T15:44:41.237Z,3.50
2023-01-19T15:47:09.885Z,3.80
2023-01-19T15:49:36.774Z,3.90
2023-01-19T15:52:03.870Z,3.00
2023-01-19T15:54:30.826Z,3.17
2023-01-19T15:56:57.682Z,3.13
2023-01-19T15:59:24.628Z,3.30
2023-01-19T16:01:51.888Z,3.40
2023-01-19T16:04:18.837Z,3.90
2023-01-19T16:06:45.871Z,3.70
2023-01-19T16:09:16.929Z,3.65
2023-01-19T16:11:44.233Z,3.95
2023-01-19T16:14:11.314Z,3.40
2023-01-19T16:16:38.504Z,3.78
2023-01-19T16:19:05.433Z,3.25
2023-01-19T16:21:32.335Z,3.17
2023-01-19T16:23:59.191Z,3.40
2023-01-19T16:26:30.435Z,3.38
2023-01-19T16:28:59.494Z,4.00
2023-01-19T16:31:26.742Z,3.53
2023-01-19T16:33:53.594Z,4.18
2023-01-19T16:36:27.253Z,3.47
2023-01-19T16:38:57.881Z,3.92
2023-01-19T16:41:24.695Z,3.50
2023-01-19T16:43:55.351Z,3.75
2023-01-19T16:46:24.860Z,3.80
2023-01-19T16:48:52.938Z,3.58
2023-01-19T16:51:20.049Z,4.00
2023-01-19T16:53:51.614Z,5.65
2023-01-19T16:56:19.139Z,4.63
2023-01-19T16:58:46.726Z,6.80
2023-01-19T17:01:19.664Z,7.10
2023-01-19T17:03:47.225Z,7.43
2023-01-19T17:06:18.104Z,6.95
2023-01-19T17:08:45.600Z,6.43
2023-01-19T17:11:19.441Z,4.70
2023-01-19T17:13:54.599Z,3.88
2023-01-19T17:16:23.002Z,4.03
2023-01-19T17:18:50.314Z,3.13
2023-01-19T17:21:18.098Z,3.70
2023-01-19T17:23:49.885Z,3.85
2023-01-19T17:26:17.600Z,4.50
2023-01-19T17:28:45.068Z,4.95
2023-01-19T17:31:15.363Z,4.35
2023-01-19T17:33:45.362Z,4.25
2023-01-19T17:36:21.200Z,4.82
2023-01-19T17:38:49.320Z,5.22
2023-01-19T17:41:27.416Z,4.30
2023-01-19T17:43:55.339Z,5.18
2023-01-19T17:46:24.518Z,5.00
2023-01-19T17:48:53.098Z,4.65
2023-01-19T17:51:20.061Z,5.40
2023-01-19T17:53:46.973Z,5.20
2023-01-19T17:56:21.911Z,4.38
2023-01-19T17:58:49.636Z,4.38
2023-01-19T18:01:25.150Z,4.13
2023-01-19T18:03:52.938Z,4.25
2023-01-19T18:06:20.538Z,4.25
2023-01-19T18:08:48.657Z,4.18
2023-01-19T18:11:18.089Z,4.55
2023-01-19T18:13:46.198Z,4.65
2023-01-19T18:16:17.083Z,4.85
2023-01-19T18:18:44.293Z,5.28
2023-01-19T18:21:13.751Z,4.70
2023-01-19T18:23:43.904Z,5.07
2023-01-19T18:26:13.446Z,4.90
2023-01-19T18:28:40.351Z,5.88
2023-01-19T18:31:11.899Z,6.25
2023-01-19T18:33:39.679Z,6.60
2023-01-19T18:36:07.589Z,6.43
2023-01-19T18:38:34.795Z,6.50
2023-01-19T18:41:07.706Z,6.65
2023-01-19T18:43:34.978Z,6.38
2023-01-19T18:46:02.119Z,6.63
2023-01-19T18:48:29.056Z,6.63
2023-01-19T18:50:56.575Z,5.78
2023-01-19T18:53:24.258Z,6.22
2023-01-19T18:55:56.555Z,7.45
2023-01-19T18:58:23.893Z,6.60
2023-01-19T19:00:51.245Z,6.68
2023-01-19T19:03:18.365Z,8.00
2023-01-19T19:05:45.356Z,6.70
2023-01-19T19:08:12.508Z,6.72
2023-01-19T19:10:41.939Z,6.93
2023-01-19T19:13:12.425Z,6.38
2023-01-19T19:15:39.311Z,7.47
2023-01-19T19:18:08.883Z,8.13
2023-01-19T19:20:38.556Z,6.88
2023-01-19T19:23:05.772Z,7.38
2023-01-19T19:25:33.271Z,7.07
2023-01-19T19:28:00.325Z,8.43
2023-01-19T19:30:27.434Z,7.82
2023-01-19T19:32:56.094Z,7.32
2023-01-19T19:35:24.156Z,7.68
2023-01-19T19:37:51.590Z,7.18
2023-01-19T19:40:18.624Z,7.43
2023-01-19T19:42:45.659Z,7.47
2023-01-19T19:45:12.854Z,8.35
2023-01-19T19:47:40.126Z,8.15
2023-01-19T19:50:07.810Z,10.48
2023-01-19T19:52:39.285Z,9.45
2023-01-19T19:55:08.334Z,8.60
2023-01-19T19:57:35.492Z,8.63
2023-01-19T20:00:03.174Z,8.75
2023-01-19T20:02:36.729Z,8.88
2023-01-19T20:05:04.173Z,8.07
2023-01-19T20:07:31.073Z,7.82
2023-01-19T20:09:58.054Z,8.10
2023-01-19T20:12:25.214Z,8.00
2023-01-19T20:14:52.096Z,7.82
2023-01-19T20:17:20.730Z,7.63
2023-01-19T20:19:49.087Z,7.05
2023-01-19T20:22:16.301Z,7.28
2023-01-19T20:24:43.352Z,6.43
2023-01-19T20:27:10.192Z,6.93
2023-01-19T20:29:37.058Z,6.50
2023-01-19T20:32:04.059Z,5.88
2023-01-19T20:34:33.450Z,7.88
2023-01-19T20:37:01.747Z,6.60
2023-01-19T20:39:30.266Z,6.60
2023-01-19T20:41:57.379Z,7.72
2023-01-19T20:44:26.100Z,6.50
2023-01-19T20:46:54.184Z,6.80
2023-01-19T20:49:21.326Z,7.53
2023-01-19T20:51:48.717Z,7.25
2023-01-19T20:54:19.155Z,7.70
2023-01-19T20:56:46.005Z,7.55
2023-01-19T20:59:13.739Z,8.18
2023-01-19T21:01:41.600Z,10.13
2023-01-19T21:04:09.407Z,9.27
2023-01-19T21:06:36.711Z,7.43
2023-01-19T21:09:04.537Z,6.95
2023-01-19T21:11:31.446Z,7.57
2023-01-19T21:13:58.470Z,7.55
2023-01-19T21:16:27.887Z,7.38
2023-01-19T21:18:56.182Z,6.20
2023-01-19T21:21:30.721Z,6.93
2023-01-19T21:23:59.725Z,7.45
2023-01-19T21:26:30.075Z,6.40
2023-01-19T21:29:01.606Z,6.53
2023-01-19T21:31:29.525Z,6.05
2023-01-19T21:33:57.711Z,6.00
2023-01-19T21:36:25.385Z,6.20
2023-01-19T21:38:52.959Z,5.50
2023-01-19T21:41:20.207Z,5.60
2023-01-19T21:43:48.004Z,6.03
2023-01-19T21:46:20.969Z,5.25
2023-01-19T21:48:48.109Z,6.25
2023-01-19T21:51:15.587Z,6.68
2023-01-19T21:53:42.512Z,6.40
2023-01-19T21:56:10.900Z,6.38
2023-01-19T21:58:38.325Z,6.07
2023-01-19T22:01:10.835Z,6.50
2023-01-19T22:03:37.954Z,6.55
2023-01-19T22:06:06.879Z,6.22
2023-01-19T22:08:34.172Z,7.07
2023-01-19T22:11:05.491Z,7.22
2023-01-19T22:13:33.544Z,6.30
2023-01-19T22:16:01.533Z,6.60
2023-01-19T22:18:28.764Z,6.25
2023-01-19T22:20:55.746Z,6.32
2023-01-19T22:23:22.781Z,6.10
2023-01-19T22:25:49.704Z,6.25
2023-01-19T22:28:16.571Z,6.43
2023-01-19T22:30:43.686Z,6.22
2023-01-19T22:33:10.587Z,6.47
2023-01-19T22:35:37.615Z,6.47
2023-01-19T22:38:04.509Z,6.63
2023-01-19T22:40:31.317Z,7.03
2023-01-19T22:42:58.088Z,6.95
2023-01-19T22:45:24.990Z,7.25
2023-01-19T22:47:51.864Z,6.35
2023-01-19T22:50:18.764Z,6.63
2023-01-19T22:52:45.600Z,6.50
2023-01-19T22:55:12.945Z,6.93
2023-01-19T22:57:40.028Z,7.45
2023-01-19T23:00:09.050Z,6.90
2023-01-19T23:02:36.130Z,6.93
2023-01-19T23:05:03.137Z,6.80
2023-01-19T23:07:29.990Z,6.35
2023-01-19T23:09:56.866Z,6.45
2023-01-19T23:12:23.785Z,6.90
2023-01-19T23:14:50.627Z,6.07
2023-01-19T23:17:17.450Z,6.65
2023-01-19T23:19:44.310Z,6.75
2023-01-19T23:22:11.168Z,6.55
2023-01-19T23:24:38.065Z,6.25
2023-01-19T23:27:04.871Z,5.63
2023-01-19T23:29:31.733Z,6.40
2023-01-19T23:31:58.622Z,5.53
2023-01-19T23:34:25.540Z,6.20
2023-01-19T23:36:52.419Z,6.57
2023-01-19T23:39:21.655Z,6.53
2023-01-19T23:41:49.423Z,5.00
2023-01-19T23:44:17.337Z,6.57
2023-01-19T23:46:44.528Z,6.35
2023-01-19T23:49:12.868Z,5.82
2023-01-19T23:51:40.854Z,6.60
2023-01-19T23:54:07.959Z,6.85
2023-01-19T23:56:37.200Z,6.68
2023-01-19T23:59:07.506Z,6.90
